sensor_id;sensor_type;location;lat;lon;timestamp;temperature;humidity
18266;DHT22;9259;48.194;16.322;2023-05-10T00:01:01;11.90;99.90
18266;DHT22;9259;48.194;16.322;2023-05-10T00:03:28;11.90;99.90
18266;DHT22;9259;48.194;16.322;2023-05-10T00:05:56;11.90;99.90
18266;DHT22;9259;48.194;16.322;2023-05-10T00:08:23;11.80;99.90
18266;DHT22;9259;48.194;16.322;2023-05-10T00:10:52;11.80;99.90
18266;DHT22;9259;48.194;16.322;2023-05-10T00:13:20;11.80;99.90
18266;DHT22;9259;48.194;16.322;2023-05-10T00:15:47;11.80;99.90
18266;DHT22;9259;48.194;16.322;2023-05-10T00:18:14;11.70;99.90
18266;DHT22;9259;48.194;16.322;2023-05-10T00:20:42;11.80;99.90
18266;DHT22;9259;48.194;16.322;2023-05-10T00:23:11;11.80;99.90
18266;DHT22;9259;48.194;16.322;2023-05-10T00:25:39;11.70;99.90
18266;DHT22;9259;48.194;16.322;2023-05-10T00:28:07;11.70;99.90
18266;DHT22;9259;48.194;16.322;2023-05-10T00:30:35;11.70;99.90
18266;DHT22;9259;48.194;16.322;2023-05-10T00:33:02;11.70;99.90
18266;DHT22;9259;48.194;16.322;2023-05-10T00:35:30;11.70;99.90
18266;DHT22;9259;48.194;16.322;2023-05-10T00:37:58;11.70;99.90
18266;DHT22;9259;48.194;16.322;2023-05-10T00:40:28;11.60;99.90
18266;DHT22;9259;48.194;16.322;2023-05-10T00:42:56;11.60;99.90
18266;DHT22;9259;48.194;16.322;2023-05-10T00:45:26;11.60;99.90
18266;DHT22;9259;48.194;16.322;2023-05-10T00:47:53;11.60;99.90
18266;DHT22;9259;48.194;16.322;2023-05-10T00:50:22;11.50;99.90
18266;DHT22;9259;48.194;16.322;2023-05-10T00:52:50;11.60;99.90
18266;DHT22;9259;48.194;16.322;2023-05-10T00:55:18;11.50;99.90
18266;DHT22;9259;48.194;16.322;2023-05-10T00:57:45;11.50;99.90
18266;DHT22;9259;48.194;16.322;2023-05-10T01:00:13;11.50;99.90
18266;DHT22;9259;48.194;16.322;2023-05-10T01:02:45;11.50;99.90
18266;DHT22;9259;48.194;16.322;2023-05-10T01:05:13;11.40;99.90
18266;DHT22;9259;48.194;16.322;2023-05-10T01:07:41;11.50;99.90
18266;DHT22;9259;48.194;16.322;2023-05-10T01:10:09;11.40;99.90
18266;DHT22;9259;48.194;16.322;2023-05-10T01:12:40;11.40;99.90
18266;DHT22;9259;48.194;16.322;2023-05-10T01:15:09;11.30;99.90
18266;DHT22;9259;48.194;16.322;2023-05-10T01:17:39;11.30;99.90
18266;DHT22;9259;48.194;16.322;2023-05-10T01:20:09;11.30;99.90
18266;DHT22;9259;48.194;16.322;2023-05-10T01:23:02;11.30;99.90
18266;DHT22;9259;48.194;16.322;2023-05-10T01:25:56;11.20;99.90
18266;DHT22;9259;48.194;16.322;2023-05-10T01:28:43;11.20;99.90
18266;DHT22;9259;48.194;16.322;2023-05-10T01:31:33;11.20;99.90
18266;DHT22;9259;48.194;16.322;2023-05-10T01:34:11;11.10;99.90
18266;DHT22;9259;48.194;16.322;2023-05-10T01:36:47;11.10;99.90
18266;DHT22;9259;48.194;16.322;2023-05-10T01:39:19;11.10;99.90
18266;DHT22;9259;48.194;16.322;2023-05-10T01:41:52;11.00;99.90
18266;DHT22;9259;48.194;16.322;2023-05-10T01:44:27;11.00;99.90
18266;DHT22;9259;48.194;16.322;2023-05-10T01:47:01;11.00;99.90
18266;DHT22;9259;48.194;16.322;2023-05-10T01:49:36;11.00;99.90
18266;DHT22;9259;48.194;16.322;2023-05-10T01:52:09;10.90;99.90
18266;DHT22;9259;48.194;16.322;2023-05-10T01:54:41;10.90;99.90
18266;DHT22;9259;48.194;16.322;2023-05-10T01:57:10;10.80;99.90
18266;DHT22;9259;48.194;16.322;2023-05-10T01:59:43;10.80;99.90
18266;DHT22;9259;48.194;16.322;2023-05-10T02:02:11;10.80;99.90
18266;DHT22;9259;48.194;16.322;2023-05-10T02:04:41;10.80;99.90
18266;DHT22;9259;48.194;16.322;2023-05-10T02:07:09;10.70;99.90
18266;DHT22;9259;48.194;16.322;2023-05-10T02:09:38;10.70;99.90
18266;DHT22;9259;48.194;16.322;2023-05-10T02:12:06;10.70;99.90
18266;DHT22;9259;48.194;16.322;2023-05-10T02:14:36;10.70;99.90
18266;DHT22;9259;48.194;16.322;2023-05-10T02:17:05;10.60;99.90
18266;DHT22;9259;48.194;16.322;2023-05-10T02:19:34;10.60;99.90
18266;DHT22;9259;48.194;16.322;2023-05-10T02:22:05;10.60;99.90
18266;DHT22;9259;48.194;16.322;2023-05-10T02:24:35;10.60;99.90
18266;DHT22;9259;48.194;16.322;2023-05-10T02:27:04;10.60;99.90
18266;DHT22;9259;48.194;16.322;2023-05-10T02:29:32;10.50;99.90
18266;DHT22;9259;48.194;16.322;2023-05-10T02:32:01;10.50;99.90
18266;DHT22;9259;48.194;16.322;2023-05-10T02:34:30;10.50;99.90
18266;DHT22;9259;48.194;16.322;2023-05-10T02:36:58;10.40;99.90
18266;DHT22;9259;48.194;16.322;2023-05-10T02:39:29;10.40;99.90
18266;DHT22;9259;48.194;16.322;2023-05-10T02:42:00;10.40;99.90
18266;DHT22;9259;48.194;16.322;2023-05-10T02:44:29;10.30;99.90
18266;DHT22;9259;48.194;16.322;2023-05-10T02:46:57;10.30;99.90
18266;DHT22;9259;48.194;16.322;2023-05-10T02:49:24;10.20;99.90
18266;DHT22;9259;48.194;16.322;2023-05-10T02:51:56;10.30;99.90
18266;DHT22;9259;48.194;16.322;2023-05-10T02:54:29;10.20;99.90
18266;DHT22;9259;48.194;16.322;2023-05-10T02:56:59;10.10;99.90
18266;DHT22;9259;48.194;16.322;2023-05-10T02:59:27;10.00;99.90
18266;DHT22;9259;48.194;16.322;2023-05-10T03:02:01;10.00;99.90
18266;DHT22;9259;48.194;16.322;2023-05-10T03:04:29;10.00;99.90
18266;DHT22;9259;48.194;16.322;2023-05-10T03:06:56;9.90;99.90
18266;DHT22;9259;48.194;16.322;2023-05-10T03:09:24;9.90;99.90
18266;DHT22;9259;48.194;16.322;2023-05-10T03:12:04;9.90;99.90
18266;DHT22;9259;48.194;16.322;2023-05-10T03:14:45;9.80;99.90
18266;DHT22;9259;48.194;16.322;2023-05-10T03:17:23;9.80;99.90
18266;DHT22;9259;48.194;16.322;2023-05-10T03:19:53;9.80;99.90
18266;DHT22;9259;48.194;16.322;2023-05-10T03:22:24;9.80;99.90
18266;DHT22;9259;48.194;16.322;2023-05-10T03:24:55;9.80;99.90
18266;DHT22;9259;48.194;16.322;2023-05-10T03:27:26;9.80;99.90
18266;DHT22;9259;48.194;16.322;2023-05-10T03:29:55;9.70;99.90
18266;DHT22;9259;48.194;16.322;2023-05-10T03:32:23;9.70;99.90
18266;DHT22;9259;48.194;16.322;2023-05-10T03:34:50;9.70;99.90
18266;DHT22;9259;48.194;16.322;2023-05-10T03:37:18;9.60;99.90
18266;DHT22;9259;48.194;16.322;2023-05-10T03:39:45;9.50;99.90
18266;DHT22;9259;48.194;16.322;2023-05-10T03:42:12;9.60;99.90
18266;DHT22;9259;48.194;16.322;2023-05-10T03:44:41;9.60;99.90
18266;DHT22;9259;48.194;16.322;2023-05-10T03:47:08;9.60;99.90
18266;DHT22;9259;48.194;16.322;2023-05-10T03:49:36;9.60;99.90
18266;DHT22;9259;48.194;16.322;2023-05-10T03:52:04;9.50;99.90
18266;DHT22;9259;48.194;16.322;2023-05-10T03:54:31;9.60;99.90
18266;DHT22;9259;48.194;16.322;2023-05-10T03:56:59;9.60;99.90
18266;DHT22;9259;48.194;16.322;2023-05-10T03:59:27;9.60;99.90
18266;DHT22;9259;48.194;16.322;2023-05-10T04:01:56;9.50;99.90
18266;DHT22;9259;48.194;16.322;2023-05-10T04:04:23;9.50;99.90
18266;DHT22;9259;48.194;16.322;2023-05-10T04:06:51;9.50;99.90
18266;DHT22;9259;48.194;16.322;2023-05-10T04:09:19;9.50;99.90
18266;DHT22;9259;48.194;16.322;2023-05-10T04:11:47;9.50;99.90
18266;DHT22;9259;48.194;16.322;2023-05-10T04:14:14;9.50;99.90
18266;DHT22;9259;48.194;16.322;2023-05-10T04:16:42;9.50;99.90
18266;DHT22;9259;48.194;16.322;2023-05-10T04:19:11;9.60;99.90
18266;DHT22;9259;48.194;16.322;2023-05-10T04:21:38;9.60;99.90
18266;DHT22;9259;48.194;16.322;2023-05-10T04:24:06;9.60;99.90
18266;DHT22;9259;48.194;16.322;2023-05-10T04:26:33;9.60;99.90
18266;DHT22;9259;48.194;16.322;2023-05-10T04:29:01;9.70;99.90
18266;DHT22;9259;48.194;16.322;2023-05-10T04:31:28;9.70;99.90
18266;DHT22;9259;48.194;16.322;2023-05-10T04:33:55;9.90;99.90
18266;DHT22;9259;48.194;16.322;2023-05-10T04:36:24;9.90;99.90
18266;DHT22;9259;48.194;16.322;2023-05-10T04:38:52;10.00;99.90
18266;DHT22;9259;48.194;16.322;2023-05-10T04:41:19;10.00;99.90
18266;DHT22;9259;48.194;16.322;2023-05-10T04:43:47;10.10;99.90
18266;DHT22;9259;48.194;16.322;2023-05-10T04:46:15;10.30;99.90
18266;DHT22;9259;48.194;16.322;2023-05-10T04:48:42;10.40;99.90
18266;DHT22;9259;48.194;16.322;2023-05-10T04:51:10;10.40;99.90
18266;DHT22;9259;48.194;16.322;2023-05-10T04:53:39;10.50;99.90
18266;DHT22;9259;48.194;16.322;2023-05-10T04:56:07;10.60;99.90
18266;DHT22;9259;48.194;16.322;2023-05-10T04:58:34;10.60;99.90
18266;DHT22;9259;48.194;16.322;2023-05-10T05:01:05;10.70;99.90
18266;DHT22;9259;48.194;16.322;2023-05-10T05:03:33;10.80;99.90
18266;DHT22;9259;48.194;16.322;2023-05-10T05:06:01;10.90;99.90
18266;DHT22;9259;48.194;16.322;2023-05-10T05:08:29;11.10;99.90
18266;DHT22;9259;48.194;16.322;2023-05-10T05:10:58;11.20;99.90
18266;DHT22;9259;48.194;16.322;2023-05-10T05:13:25;11.30;99.90
18266;DHT22;9259;48.194;16.322;2023-05-10T05:15:52;11.30;99.90
18266;DHT22;9259;48.194;16.322;2023-05-10T05:18:20;11.40;99.90
18266;DHT22;9259;48.194;16.322;2023-05-10T05:20:47;11.50;99.90
18266;DHT22;9259;48.194;16.322;2023-05-10T05:23:15;11.70;99.90
18266;DHT22;9259;48.194;16.322;2023-05-10T05:25:42;11.80;99.90
18266;DHT22;9259;48.194;16.322;2023-05-10T05:28:11;12.00;99.90
18266;DHT22;9259;48.194;16.322;2023-05-10T05:30:39;12.10;99.90
18266;DHT22;9259;48.194;16.322;2023-05-10T05:33:06;12.20;99.90
18266;DHT22;9259;48.194;16.322;2023-05-10T05:35:34;12.20;99.90
18266;DHT22;9259;48.194;16.322;2023-05-10T05:38:01;12.30;99.90
18266;DHT22;9259;48.194;16.322;2023-05-10T05:40:28;12.40;99.90
18266;DHT22;9259;48.194;16.322;2023-05-10T05:42:56;12.50;99.90
18266;DHT22;9259;48.194;16.322;2023-05-10T05:45:25;12.60;99.90
18266;DHT22;9259;48.194;16.322;2023-05-10T05:47:52;12.80;99.90
18266;DHT22;9259;48.194;16.322;2023-05-10T05:50:19;13.00;99.90
18266;DHT22;9259;48.194;16.322;2023-05-10T05:52:47;13.10;99.90
18266;DHT22;9259;48.194;16.322;2023-05-10T05:55:14;13.30;99.90
18266;DHT22;9259;48.194;16.322;2023-05-10T05:57:42;13.50;99.90
18266;DHT22;9259;48.194;16.322;2023-05-10T06:00:10;13.70;99.90
18266;DHT22;9259;48.194;16.322;2023-05-10T06:02:38;13.80;99.90
18266;DHT22;9259;48.194;16.322;2023-05-10T06:05:07;14.00;99.90
18266;DHT22;9259;48.194;16.322;2023-05-10T06:07:34;14.10;99.90
18266;DHT22;9259;48.194;16.322;2023-05-10T06:10:02;14.10;99.90
18266;DHT22;9259;48.194;16.322;2023-05-10T06:12:30;14.30;99.90
18266;DHT22;9259;48.194;16.322;2023-05-10T06:14:57;14.30;99.90
18266;DHT22;9259;48.194;16.322;2023-05-10T06:17:25;14.50;99.90
18266;DHT22;9259;48.194;16.322;2023-05-10T06:19:53;14.60;99.90
18266;DHT22;9259;48.194;16.322;2023-05-10T06:22:21;14.70;99.90
18266;DHT22;9259;48.194;16.322;2023-05-10T06:24:50;14.80;99.90
18266;DHT22;9259;48.194;16.322;2023-05-10T06:27:17;14.80;99.90
18266;DHT22;9259;48.194;16.322;2023-05-10T06:29:45;14.90;99.90
18266;DHT22;9259;48.194;16.322;2023-05-10T06:32:12;15.00;99.90
18266;DHT22;9259;48.194;16.322;2023-05-10T06:34:40;15.20;99.90
18266;DHT22;9259;48.194;16.322;2023-05-10T06:37:10;15.20;99.90
18266;DHT22;9259;48.194;16.322;2023-05-10T06:39:38;15.10;99.90
18266;DHT22;9259;48.194;16.322;2023-05-10T06:42:05;15.40;99.90
18266;DHT22;9259;48.194;16.322;2023-05-10T06:44:32;15.50;99.90
18266;DHT22;9259;48.194;16.322;2023-05-10T06:47:00;15.30;99.90
18266;DHT22;9259;48.194;16.322;2023-05-10T06:49:27;15.40;99.90
18266;DHT22;9259;48.194;16.322;2023-05-10T06:51:55;15.50;99.90
18266;DHT22;9259;48.194;16.322;2023-05-10T06:54:24;15.50;99.90
18266;DHT22;9259;48.194;16.322;2023-05-10T06:56:51;15.60;99.90
18266;DHT22;9259;48.194;16.322;2023-05-10T06:59:19;15.60;99.90
18266;DHT22;9259;48.194;16.322;2023-05-10T07:01:47;15.60;99.90
18266;DHT22;9259;48.194;16.322;2023-05-10T07:04:16;15.80;99.90
18266;DHT22;9259;48.194;16.322;2023-05-10T07:06:44;16.00;99.90
18266;DHT22;9259;48.194;16.322;2023-05-10T07:09:12;16.00;99.90
18266;DHT22;9259;48.194;16.322;2023-05-10T07:11:41;15.90;99.90
18266;DHT22;9259;48.194;16.322;2023-05-10T07:14:09;16.00;99.90
18266;DHT22;9259;48.194;16.322;2023-05-10T07:16:36;16.10;99.90
18266;DHT22;9259;48.194;16.322;2023-05-10T07:19:04;16.00;99.90
18266;DHT22;9259;48.194;16.322;2023-05-10T07:21:32;16.00;99.90
18266;DHT22;9259;48.194;16.322;2023-05-10T07:24:01;15.90;99.90
18266;DHT22;9259;48.194;16.322;2023-05-10T07:26:28;15.90;99.90
18266;DHT22;9259;48.194;16.322;2023-05-10T07:28:57;16.10;99.90
18266;DHT22;9259;48.194;16.322;2023-05-10T07:31:25;16.20;99.90
18266;DHT22;9259;48.194;16.322;2023-05-10T07:33:52;16.40;99.90
18266;DHT22;9259;48.194;16.322;2023-05-10T07:36:19;16.30;99.90
18266;DHT22;9259;48.194;16.322;2023-05-10T07:38:47;16.20;99.90
18266;DHT22;9259;48.194;16.322;2023-05-10T07:41:15;16.30;99.90
18266;DHT22;9259;48.194;16.322;2023-05-10T07:43:43;16.30;99.90
18266;DHT22;9259;48.194;16.322;2023-05-10T07:46:11;16.20;99.90
18266;DHT22;9259;48.194;16.322;2023-05-10T07:48:39;16.20;99.90
18266;DHT22;9259;48.194;16.322;2023-05-10T07:51:06;16.40;99.90
18266;DHT22;9259;48.194;16.322;2023-05-10T07:53:35;16.40;99.90
18266;DHT22;9259;48.194;16.322;2023-05-10T07:56:20;16.30;99.90
18266;DHT22;9259;48.194;16.322;2023-05-10T07:58:47;16.40;99.90
18266;DHT22;9259;48.194;16.322;2023-05-10T08:01:16;16.70;99.90
18266;DHT22;9259;48.194;16.322;2023-05-10T08:03:44;16.60;99.90
18266;DHT22;9259;48.194;16.322;2023-05-10T08:06:11;16.70;99.90
18266;DHT22;9259;48.194;16.322;2023-05-10T08:08:47;16.90;99.90
18266;DHT22;9259;48.194;16.322;2023-05-10T08:11:15;17.20;99.90
18266;DHT22;9259;48.194;16.322;2023-05-10T08:13:42;18.00;99.90
18266;DHT22;9259;48.194;16.322;2023-05-10T08:16:10;18.60;99.90
18266;DHT22;9259;48.194;16.322;2023-05-10T08:18:39;18.50;99.90
18266;DHT22;9259;48.194;16.322;2023-05-10T08:21:07;19.00;99.90
18266;DHT22;9259;48.194;16.322;2023-05-10T08:23:35;18.50;99.90
18266;DHT22;9259;48.194;16.322;2023-05-10T08:26:02;18.70;99.90
18266;DHT22;9259;48.194;16.322;2023-05-10T08:43:23;19.80;99.90
18266;DHT22;9259;48.194;16.322;2023-05-10T08:45:55;19.70;99.90
18266;DHT22;9259;48.194;16.322;2023-05-10T08:48:24;20.40;99.90
18266;DHT22;9259;48.194;16.322;2023-05-10T10:05:13;20.10;99.90
18266;DHT22;9259;48.194;16.322;2023-05-10T10:07:41;17.80;99.90
18266;DHT22;9259;48.194;16.322;2023-05-10T10:10:09;18.40;99.90
18266;DHT22;9259;48.194;16.322;2023-05-10T10:12:39;19.10;99.90
18266;DHT22;9259;48.194;16.322;2023-05-10T10:15:08;19.60;99.90
18266;DHT22;9259;48.194;16.322;2023-05-10T10:17:37;19.80;99.90
18266;DHT22;9259;48.194;16.322;2023-05-10T10:20:07;19.30;99.90
18266;DHT22;9259;48.194;16.322;2023-05-10T10:22:35;19.40;99.90
18266;DHT22;9259;48.194;16.322;2023-05-10T10:27:39;19.70;99.50
18266;DHT22;9259;48.194;16.322;2023-05-10T10:40:27;19.90;99.60
18266;DHT22;9259;48.194;16.322;2023-05-10T14:00:09;20.50;96.10
18266;DHT22;9259;48.194;16.322;2023-05-10T14:02:37;23.80;85.30
18266;DHT22;9259;48.194;16.322;2023-05-10T14:05:05;23.80;85.50
18266;DHT22;9259;48.194;16.322;2023-05-10T14:07:33;23.70;85.30
18266;DHT22;9259;48.194;16.322;2023-05-10T14:10:01;22.00;87.50
18266;DHT22;9259;48.194;16.322;2023-05-10T14:12:29;21.70;88.10
18266;DHT22;9259;48.194;16.322;2023-05-10T21:17:20;22.20;87.90
18266;DHT22;9259;48.194;16.322;2023-05-10T21:19:47;16.20;99.90
18266;DHT22;9259;48.194;16.322;2023-05-10T21:22:16;16.10;99.90
18266;DHT22;9259;48.194;16.322;2023-05-10T21:24:44;16.10;99.90
18266;DHT22;9259;48.194;16.322;2023-05-10T21:27:11;16.10;99.90
18266;DHT22;9259;48.194;16.322;2023-05-10T21:29:39;16.00;99.90
18266;DHT22;9259;48.194;16.322;2023-05-10T21:32:06;16.00;99.90
18266;DHT22;9259;48.194;16.322;2023-05-10T21:34:34;16.00;99.90
18266;DHT22;9259;48.194;16.322;2023-05-10T21:37:01;16.00;99.90
18266;DHT22;9259;48.194;16.322;2023-05-10T21:39:30;16.00;99.90
18266;DHT22;9259;48.194;16.322;2023-05-10T21:41:58;16.00;99.90
18266;DHT22;9259;48.194;16.322;2023-05-10T21:44:25;16.00;99.90
18266;DHT22;9259;48.194;16.322;2023-05-10T21:46:52;16.00;99.90
18266;DHT22;9259;48.194;16.322;2023-05-10T21:49:20;16.00;99.90
18266;DHT22;9259;48.194;16.322;2023-05-10T21:51:47;16.10;99.90
18266;DHT22;9259;48.194;16.322;2023-05-10T21:54:15;16.00;99.90
18266;DHT22;9259;48.194;16.322;2023-05-10T21:56:43;16.00;99.90
18266;DHT22;9259;48.194;16.322;2023-05-10T21:59:11;16.00;99.90
18266;DHT22;9259;48.194;16.322;2023-05-10T22:01:38;15.90;99.90
18266;DHT22;9259;48.194;16.322;2023-05-10T22:04:06;15.90;99.90
18266;DHT22;9259;48.194;16.322;2023-05-10T22:06:33;15.90;99.90
18266;DHT22;9259;48.194;16.322;2023-05-10T22:09:01;15.80;99.90
18266;DHT22;9259;48.194;16.322;2023-05-10T22:11:29;15.80;99.90
18266;DHT22;9259;48.194;16.322;2023-05-10T22:13:58;15.80;99.90
18266;DHT22;9259;48.194;16.322;2023-05-10T22:16:25;15.80;99.90
18266;DHT22;9259;48.194;16.322;2023-05-10T22:18:53;15.70;99.90
18266;DHT22;9259;48.194;16.322;2023-05-10T22:21:21;15.70;99.90
18266;DHT22;9259;48.194;16.322;2023-05-10T22:23:49;15.70;99.90
18266;DHT22;9259;48.194;16.322;2023-05-10T22:26:17;15.70;99.90
18266;DHT22;9259;48.194;16.322;2023-05-10T22:28:44;15.70;99.90
18266;DHT22;9259;48.194;16.322;2023-05-10T22:31:13;15.70;99.90
18266;DHT22;9259;48.194;16.322;2023-05-10T22:33:40;15.60;99.90
18266;DHT22;9259;48.194;16.322;2023-05-10T22:36:08;15.60;99.90
18266;DHT22;9259;48.194;16.322;2023-05-10T22:38:35;15.50;99.90
18266;DHT22;9259;48.194;16.322;2023-05-10T22:41:03;15.60;99.90
18266;DHT22;9259;48.194;16.322;2023-05-10T22:43:30;15.50;99.90
18266;DHT22;9259;48.194;16.322;2023-05-10T22:45:58;15.50;99.90
18266;DHT22;9259;48.194;16.322;2023-05-10T22:48:27;15.50;99.90
18266;DHT22;9259;48.194;16.322;2023-05-10T22:50:54;15.50;99.90
18266;DHT22;9259;48.194;16.322;2023-05-10T22:53:22;15.40;99.90
18266;DHT22;9259;48.194;16.322;2023-05-10T22:55:50;15.40;99.90
18266;DHT22;9259;48.194;16.322;2023-05-10T22:58:17;15.40;99.90
18266;DHT22;9259;48.194;16.322;2023-05-10T23:00:45;15.40;99.90
18266;DHT22;9259;48.194;16.322;2023-05-10T23:03:12;15.30;99.90
18266;DHT22;9259;48.194;16.322;2023-05-10T23:05:41;15.30;99.90
18266;DHT22;9259;48.194;16.322;2023-05-10T23:08:08;15.20;99.90
18266;DHT22;9259;48.194;16.322;2023-05-10T23:10:36;15.20;99.90
18266;DHT22;9259;48.194;16.322;2023-05-10T23:13:04;15.20;99.90
18266;DHT22;9259;48.194;16.322;2023-05-10T23:15:32;15.10;99.90
18266;DHT22;9259;48.194;16.322;2023-05-10T23:18:01;15.00;99.90
18266;DHT22;9259;48.194;16.322;2023-05-10T23:20:30;14.90;99.90
18266;DHT22;9259;48.194;16.322;2023-05-10T23:22:58;15.00;99.90
18266;DHT22;9259;48.194;16.322;2023-05-10T23:25:26;15.00;99.90
18266;DHT22;9259;48.194;16.322;2023-05-10T23:27:53;14.90;99.90
18266;DHT22;9259;48.194;16.322;2023-05-10T23:30:22;14.90;99.90
18266;DHT22;9259;48.194;16.322;2023-05-10T23:32:49;14.80;99.90
18266;DHT22;9259;48.194;16.322;2023-05-10T23:35:16;14.80;99.90
18266;DHT22;9259;48.194;16.322;2023-05-10T23:37:44;14.80;99.90
18266;DHT22;9259;48.194;16.322;2023-05-10T23:40:13;14.80;99.90
18266;DHT22;9259;48.194;16.322;2023-05-10T23:42:40;14.80;99.90
18266;DHT22;9259;48.194;16.322;2023-05-10T23:45:08;14.80;99.90
18266;DHT22;9259;48.194;16.322;2023-05-10T23:47:36;14.90;99.90
18266;DHT22;9259;48.194;16.322;2023-05-10T23:50:04;14.90;99.90
18266;DHT22;9259;48.194;16.322;2023-05-10T23:52:31;14.90;99.90
18266;DHT22;9259;48.194;16.322;2023-05-10T23:54:59;14.90;99.90
18266;DHT22;9259;48.194;16.322;2023-05-10T23:57:27;14.90;99.90
18266;DHT22;9259;48.194;16.322;2023-05-10T23:59:55;14.90;99.90
